createdAt,value
2019-04-01T00:01:09.494Z,23.42
2019-04-01T00:03:41.190Z,23.73
2019-04-01T00:06:12.841Z,22.45
2019-04-01T00:08:44.598Z,21.95
2019-04-01T00:11:16.284Z,23.87
2019-04-01T00:13:48.035Z,24.90
2019-04-01T00:16:19.677Z,23.47
2019-04-01T00:19:02.393Z,23.38
2019-04-01T00:21:24.590Z,24.07
2019-04-01T00:23:56.410Z,24.15
2019-04-01T00:26:27.867Z,23.75
2019-04-01T00:28:59.251Z,25.45
2019-04-01T00:31:30.872Z,24.87
2019-04-01T00:34:02.729Z,24.27
2019-04-01T00:36:34.085Z,26.73
2019-04-01T00:39:06.655Z,25.02
2019-04-01T00:41:39.642Z,25.48
2019-04-01T00:44:13.992Z,26.70
2019-04-01T00:46:45.829Z,27.53
2019-04-01T00:49:17.585Z,27.02
2019-04-01T00:51:49.444Z,26.70
2019-04-01T00:54:21.023Z,25.77
2019-04-01T00:56:52.867Z,26.35
2019-04-01T00:59:24.339Z,26.77
2019-04-01T01:01:55.960Z,27.48
2019-04-01T01:04:28.759Z,25.00
2019-04-01T01:07:00.308Z,26.90
2019-04-01T01:09:32.158Z,26.90
2019-04-01T01:12:03.632Z,27.90
2019-04-01T01:14:35.205Z,28.62
2019-04-01T01:17:06.948Z,29.23
2019-04-01T01:19:38.601Z,29.72
2019-04-01T01:22:10.363Z,28.98
2019-04-01T01:24:42.123Z,27.62
2019-04-01T01:27:13.689Z,28.45
2019-04-01T01:29:45.543Z,28.45
2019-04-01T01:32:17.103Z,28.02
2019-04-01T01:34:48.858Z,30.48
2019-04-01T01:37:20.721Z,27.70
2019-04-01T01:39:52.180Z,29.55
2019-04-01T01:42:23.817Z,29.55
2019-04-01T01:44:55.691Z,28.30
2019-04-01T01:47:27.457Z,31.00
2019-04-01T01:49:59.216Z,29.65
2019-04-01T01:52:30.768Z,29.30
2019-04-01T01:55:02.531Z,31.05
2019-04-01T01:57:34.189Z,30.48
2019-04-01T02:00:05.841Z,31.10
2019-04-01T02:02:38.629Z,30.48
2019-04-01T02:05:10.387Z,29.85
2019-04-01T02:07:41.842Z,31.68
2019-04-01T02:10:13.505Z,31.65
2019-04-01T02:12:44.849Z,31.05
2019-04-01T02:15:16.607Z,30.95
2019-04-01T02:17:48.370Z,31.90
2019-04-01T02:20:19.838Z,33.30
2019-04-01T02:22:51.479Z,31.65
2019-04-01T02:25:23.231Z,31.48
2019-04-01T02:27:54.921Z,31.73
2019-04-01T02:30:26.669Z,33.00
2019-04-01T02:32:58.422Z,33.15
2019-04-01T02:35:30.221Z,33.35
2019-04-01T02:38:01.649Z,34.53
2019-04-01T02:40:33.711Z,33.05
2019-04-01T02:43:05.156Z,31.30
2019-04-01T02:45:36.812Z,33.98
2019-04-01T02:48:08.173Z,34.48
2019-04-01T02:50:39.923Z,34.15
2019-04-01T02:53:11.781Z,32.85
2019-04-01T02:55:43.343Z,34.65
2019-04-01T02:58:15.016Z,34.25
2019-04-01T03:00:46.654Z,36.53
2019-04-01T03:03:18.253Z,37.25
2019-04-01T03:05:50.983Z,38.70
2019-04-01T03:08:22.857Z,36.93
2019-04-01T03:10:54.411Z,34.65
2019-04-01T03:13:26.098Z,35.55
2019-04-01T03:15:57.745Z,36.85
2019-04-01T03:18:29.375Z,34.50
2019-04-01T03:21:01.247Z,33.30
2019-04-01T03:23:32.800Z,34.78
2019-04-01T03:26:04.665Z,33.48
2019-04-01T03:28:36.429Z,32.50
2019-04-01T03:31:08.135Z,34.80
2019-04-01T03:33:39.938Z,35.08
2019-04-01T03:36:11.490Z,36.00
2019-04-01T03:38:43.365Z,35.38
2019-04-01T03:41:14.921Z,33.28
2019-04-01T03:43:46.572Z,35.60
2019-04-01T03:46:18.763Z,37.23
2019-04-01T03:48:50.199Z,38.08
2019-04-01T03:51:21.864Z,37.55
2019-04-01T03:53:54.540Z,36.55
2019-04-01T03:56:26.400Z,36.65
2019-04-01T03:58:58.005Z,37.70
2019-04-01T04:01:30.545Z,34.98
2019-04-01T04:04:02.089Z,35.65
2019-04-01T04:06:33.765Z,35.88
2019-04-01T04:09:06.222Z,35.98
2019-04-01T04:11:38.089Z,38.92
2019-04-01T04:14:10.875Z,41.70
2019-04-01T04:16:42.434Z,39.67
2019-04-01T04:19:15.382Z,35.38
2019-04-01T04:21:47.074Z,36.73
2019-04-01T04:24:18.724Z,40.05
2019-04-01T04:26:50.491Z,36.40
2019-04-01T04:29:22.255Z,39.13
2019-04-01T04:31:53.806Z,40.12
2019-04-01T04:34:25.375Z,37.85
2019-04-01T04:36:57.016Z,35.75
2019-04-01T04:39:28.883Z,34.92
2019-04-01T04:42:00.246Z,33.60
2019-04-01T04:44:31.989Z,35.00
2019-04-01T04:47:03.754Z,36.23
2019-04-01T04:49:35.307Z,37.25
2019-04-01T04:52:07.179Z,37.00
2019-04-01T04:54:38.625Z,36.63
2019-04-01T04:57:10.488Z,36.53
2019-04-01T04:59:42.346Z,31.77
2019-04-01T05:02:13.924Z,31.45
2019-04-01T05:04:45.669Z,29.87
2019-04-01T05:07:17.423Z,30.52
2019-04-01T05:09:48.760Z,29.85
2019-04-01T05:12:20.532Z,29.45
2019-04-01T05:14:52.090Z,30.35
2019-04-01T05:17:23.959Z,29.98
2019-04-01T05:19:55.508Z,30.12
2019-04-01T05:22:27.266Z,30.12
2019-04-01T05:24:59.132Z,30.52
2019-04-01T05:27:30.806Z,30.50
2019-04-01T05:30:03.369Z,29.18
2019-04-01T05:32:36.123Z,31.40
2019-04-01T05:35:08.022Z,31.07
2019-04-01T05:37:39.572Z,33.23
2019-04-01T05:40:11.738Z,32.25
2019-04-01T05:42:43.191Z,33.65
2019-04-01T05:45:14.703Z,38.30
2019-04-01T05:47:47.991Z,38.78
2019-04-01T05:50:19.803Z,37.95
2019-04-01T05:52:51.378Z,39.48
2019-04-01T05:55:22.920Z,39.92
2019-04-01T05:57:56.067Z,38.02
2019-04-01T06:00:32.352Z,41.05
2019-04-01T06:03:04.026Z,42.85
2019-04-01T06:05:35.843Z,42.98
2019-04-01T06:08:07.480Z,43.33
2019-04-01T06:10:38.897Z,45.70
2019-04-01T06:13:10.410Z,44.23
2019-04-01T06:15:42.214Z,51.30
2019-04-01T06:18:13.668Z,50.80
2019-04-01T06:20:45.331Z,52.33
2019-04-01T06:23:17.297Z,45.73
2019-04-01T06:25:48.753Z,49.25
2019-04-01T06:28:20.602Z,51.50
2019-04-01T06:30:52.158Z,50.98
2019-04-01T06:33:23.819Z,49.25
2019-04-01T06:35:55.477Z,53.40
2019-04-01T06:38:27.234Z,50.75
2019-04-01T06:40:58.790Z,51.88
2019-04-01T06:43:30.447Z,52.35
2019-04-01T06:46:01.907Z,51.20
2019-04-01T06:48:33.662Z,50.60
2019-04-01T06:51:05.215Z,51.63
2019-04-01T06:53:36.871Z,48.85
2019-04-01T06:56:08.736Z,46.40
2019-04-01T06:58:40.395Z,49.93
2019-04-01T07:01:13.640Z,48.75
2019-04-01T07:03:45.454Z,47.45
2019-04-01T07:06:17.105Z,47.88
2019-04-01T07:08:49.010Z,47.23
2019-04-01T07:11:20.536Z,50.35
2019-04-01T07:13:52.285Z,46.23
2019-04-01T07:16:24.052Z,48.17
2019-04-01T07:18:55.905Z,54.13
2019-04-01T07:21:27.565Z,46.73
2019-04-01T07:23:59.346Z,46.33
2019-04-01T07:26:30.805Z,45.92
2019-04-01T07:29:02.438Z,44.75
2019-04-01T07:31:34.304Z,42.75
2019-04-01T07:34:05.953Z,43.48
2019-04-01T07:36:37.520Z,43.10
2019-04-01T07:39:09.270Z,41.15
2019-04-01T07:41:40.863Z,42.00
2019-04-01T07:44:12.589Z,42.03
2019-04-01T07:46:44.449Z,41.55
2019-04-01T07:49:15.905Z,43.45
2019-04-01T07:51:47.689Z,47.90
2019-04-01T07:54:19.322Z,50.88
2019-04-01T07:56:51.079Z,49.95
2019-04-01T07:59:22.855Z,47.38
2019-04-01T08:01:54.493Z,46.75
2019-04-01T08:04:26.148Z,44.70
2019-04-01T08:06:57.918Z,42.95
2019-04-01T08:09:29.878Z,42.53
2019-04-01T08:12:01.332Z,41.40
2019-04-01T08:14:32.828Z,37.73
2019-04-01T08:17:04.549Z,36.98
2019-04-01T08:19:36.231Z,36.77
2019-04-01T08:22:07.659Z,36.85
2019-04-01T08:24:39.211Z,34.38
2019-04-01T08:27:10.976Z,33.88
2019-04-01T08:29:42.833Z,35.10
2019-04-01T08:32:14.506Z,32.95
2019-04-01T08:37:17.504Z,30.85
2019-04-01T08:39:49.161Z,31.55
2019-04-01T08:42:21.024Z,30.00
2019-04-01T08:44:52.480Z,30.85
2019-04-01T08:47:24.238Z,26.80
2019-04-01T08:49:55.796Z,24.43
2019-04-01T08:52:27.555Z,27.75
2019-04-01T08:54:59.210Z,23.67
2019-04-01T08:57:31.074Z,24.82
2019-04-01T09:00:02.496Z,24.12
2019-04-01T09:02:35.922Z,25.82
2019-04-01T09:05:07.590Z,24.47
2019-04-01T09:07:39.253Z,24.87
2019-04-01T09:10:11.716Z,24.70
2019-04-01T09:12:43.168Z,20.97
2019-04-01T09:15:14.764Z,21.60
2019-04-01T09:17:46.688Z,21.95
2019-04-01T09:20:18.175Z,21.82
2019-04-01T09:22:49.905Z,21.77
2019-04-01T09:25:21.761Z,21.33
2019-04-01T09:27:53.419Z,23.47
2019-04-01T09:30:25.289Z,23.65
2019-04-01T09:32:57.042Z,22.42
2019-04-01T09:35:28.503Z,21.87
2019-04-01T09:38:00.364Z,19.02
2019-04-01T09:40:31.765Z,20.20
2019-04-01T09:43:03.598Z,22.37
2019-04-01T09:45:35.423Z,17.87
2019-04-01T09:48:07.207Z,37.67
2019-04-01T09:50:38.674Z,23.00
2019-04-01T09:53:10.302Z,21.27
2019-04-01T09:55:42.067Z,21.68
2019-04-01T09:58:13.522Z,17.87
2019-04-01T10:00:46.919Z,19.42
2019-04-01T10:03:19.708Z,19.40
2019-04-01T10:05:51.354Z,16.82
2019-04-01T10:08:23.021Z,15.90
2019-04-01T10:10:54.702Z,16.23
2019-04-01T10:13:26.438Z,19.15
2019-04-01T10:15:58.195Z,24.12
2019-04-01T10:18:30.999Z,17.77
2019-04-01T10:21:02.631Z,16.27
2019-04-01T10:23:34.487Z,16.42
2019-04-01T10:26:06.465Z,16.25
2019-04-01T10:28:37.829Z,16.20
2019-04-01T10:31:09.578Z,16.35
2019-04-01T10:33:41.288Z,15.58
2019-04-01T10:36:12.985Z,16.40
2019-04-01T10:38:46.657Z,15.50
2019-04-01T10:41:17.953Z,17.20
2019-04-01T10:43:49.503Z,16.65
2019-04-01T10:46:21.363Z,16.00
2019-04-01T10:48:53.004Z,16.95
2019-04-01T10:51:24.766Z,20.57
2019-04-01T10:53:56.788Z,21.37
2019-04-01T10:56:29.528Z,15.40
2019-04-01T10:59:01.174Z,17.20
2019-04-01T11:01:32.960Z,16.52
2019-04-01T11:04:04.637Z,14.73
2019-04-01T11:06:36.403Z,14.50
2019-04-01T11:09:10.633Z,14.30
2019-04-01T11:11:41.916Z,14.68
2019-04-01T11:14:13.619Z,14.33
2019-04-01T11:16:46.089Z,13.43
2019-04-01T11:19:17.629Z,13.85
2019-04-01T11:21:49.073Z,14.95
2019-04-01T11:24:20.733Z,15.70
2019-04-01T11:26:52.388Z,15.65
2019-04-01T11:29:25.771Z,15.40
2019-04-01T11:31:57.806Z,14.85
2019-04-01T11:34:29.453Z,14.90
2019-04-01T11:37:01.204Z,15.32
2019-04-01T11:39:33.075Z,15.08
2019-04-01T11:42:04.545Z,17.12
2019-04-01T11:44:36.002Z,16.70
2019-04-01T11:47:07.424Z,34.40
2019-04-01T11:49:39.192Z,15.18
2019-04-01T11:52:10.707Z,16.42
2019-04-01T11:54:42.570Z,15.43
2019-04-01T11:57:14.231Z,18.20
2019-04-01T11:59:45.913Z,17.98
2019-04-01T12:02:17.649Z,17.82
2019-04-01T12:04:49.406Z,16.45
2019-04-01T12:07:21.166Z,16.97
2019-04-01T12:09:52.935Z,15.50
2019-04-01T12:12:24.622Z,15.43
2019-04-01T12:14:56.137Z,15.68
2019-04-01T12:17:27.591Z,16.23
2019-04-01T12:19:59.453Z,16.65
2019-04-01T12:22:31.010Z,15.85
2019-04-01T12:25:02.774Z,17.32
2019-04-01T12:27:34.633Z,20.37
2019-04-01T12:30:06.908Z,19.27
2019-04-01T12:32:38.677Z,22.25
2019-04-01T12:35:10.425Z,21.40
2019-04-01T12:37:41.989Z,20.35
2019-04-01T12:40:13.738Z,20.52
2019-04-01T12:42:46.315Z,20.50
2019-04-01T12:45:18.084Z,20.60
2019-04-01T12:47:49.838Z,21.65
2019-04-01T12:50:21.313Z,22.40
2019-04-01T12:52:53.057Z,20.17
2019-04-01T12:55:24.614Z,29.40
2019-04-01T12:57:56.371Z,18.82
2019-04-01T13:00:29.370Z,24.12
2019-04-01T13:03:01.024Z,21.23
2019-04-01T13:05:32.773Z,22.00
2019-04-01T13:08:04.434Z,21.87
2019-04-01T13:10:36.913Z,20.30
2019-04-01T13:13:08.626Z,22.13
2019-04-01T13:15:40.435Z,19.35
2019-04-01T13:18:12.004Z,23.55
2019-04-01T13:20:43.640Z,19.98
2019-04-01T13:23:15.397Z,18.52
2019-04-01T13:25:47.169Z,24.60
2019-04-01T13:28:18.862Z,20.70
2019-04-01T13:30:50.681Z,19.95
2019-04-01T13:33:22.452Z,21.20
2019-04-01T13:35:54.207Z,21.02
2019-04-01T13:38:25.967Z,20.15
2019-04-01T13:40:57.632Z,20.85
2019-04-01T13:43:29.289Z,19.77
2019-04-01T13:46:01.142Z,20.57
2019-04-01T13:48:32.697Z,20.82
2019-04-01T13:51:04.479Z,20.02
2019-04-01T13:53:36.321Z,21.07
2019-04-01T13:56:10.261Z,18.37
2019-04-01T13:58:41.484Z,16.95
2019-04-01T14:01:14.157Z,19.20
2019-04-01T14:03:45.710Z,18.05
2019-04-01T14:06:17.471Z,18.02
2019-04-01T14:08:49.335Z,18.62
2019-04-01T14:11:21.201Z,17.52
2019-04-01T14:13:52.959Z,17.98
2019-04-01T14:16:24.455Z,17.60
2019-04-01T14:18:57.297Z,19.60
2019-04-01T14:21:29.087Z,18.98
2019-04-01T14:24:00.817Z,19.82
2019-04-01T14:26:32.579Z,20.02
2019-04-01T14:29:04.227Z,20.52
2019-04-01T14:31:35.869Z,20.50
2019-04-01T14:34:13.193Z,19.70
2019-04-01T14:36:41.260Z,19.70
2019-04-01T14:39:12.835Z,18.70
2019-04-01T14:41:44.577Z,19.40
2019-04-01T14:44:16.134Z,19.55
2019-04-01T14:46:47.894Z,17.80
2019-04-01T14:49:19.299Z,18.23
2019-04-01T14:51:51.002Z,15.83
2019-04-01T14:54:22.659Z,15.78
2019-04-01T14:56:54.312Z,17.75
2019-04-01T14:59:25.767Z,19.30
2019-04-01T15:01:57.528Z,28.65
2019-04-01T15:04:29.285Z,20.37
2019-04-01T15:07:01.152Z,16.75
2019-04-01T15:09:32.799Z,17.17
2019-04-01T15:12:04.570Z,16.00
2019-04-01T15:14:36.434Z,17.42
2019-04-01T15:17:09.215Z,17.05
2019-04-01T15:19:40.875Z,16.20
2019-04-01T15:22:12.737Z,15.38
2019-04-01T15:24:44.293Z,16.70
2019-04-01T15:27:15.742Z,14.60
2019-04-01T15:29:47.512Z,15.08
2019-04-01T15:32:18.983Z,13.68
2019-04-01T15:34:50.726Z,17.15
2019-04-01T15:37:23.177Z,13.95
2019-04-01T15:39:54.851Z,16.25
2019-04-01T15:42:26.407Z,12.55
2019-04-01T15:44:58.275Z,12.50
2019-04-01T15:47:29.635Z,10.75
2019-04-01T15:50:01.383Z,10.98
2019-04-01T15:52:33.721Z,12.33
2019-04-01T15:55:07.044Z,12.05
2019-04-01T15:57:38.706Z,11.08
2019-04-01T16:00:10.263Z,12.73
2019-04-01T16:02:43.661Z,12.78
2019-04-01T16:05:15.318Z,13.53
2019-04-01T16:07:46.768Z,13.43
2019-04-01T16:10:20.971Z,12.98
2019-04-01T16:12:52.546Z,13.55
2019-04-01T16:15:24.372Z,13.62
2019-04-01T16:17:56.167Z,14.78
2019-04-01T16:20:27.633Z,13.13
2019-04-01T16:22:59.277Z,15.63
2019-04-01T16:25:30.930Z,13.93
2019-04-01T16:28:02.591Z,14.55
2019-04-01T16:30:35.059Z,15.80
2019-04-01T16:33:06.858Z,14.40
2019-04-01T16:35:38.507Z,17.23
2019-04-01T16:38:10.359Z,15.38
2019-04-01T16:40:42.011Z,14.58
2019-04-01T16:43:13.563Z,14.53
2019-04-01T16:45:45.015Z,14.40
2019-04-01T16:48:16.716Z,14.03
2019-04-01T16:50:48.317Z,14.45
2019-04-01T16:53:19.905Z,14.63
2019-04-01T16:55:51.638Z,14.33
2019-04-01T16:58:23.205Z,16.42
2019-04-01T17:00:55.261Z,14.90
2019-04-01T17:03:26.934Z,13.55
2019-04-01T17:05:58.493Z,12.75
2019-04-01T17:08:30.146Z,13.22
2019-04-01T17:11:02.183Z,13.08
2019-04-01T17:13:34.176Z,13.38
2019-04-01T17:16:05.671Z,13.30
2019-04-01T17:18:37.621Z,12.93
2019-04-01T17:21:09.459Z,11.85
2019-04-01T17:23:42.077Z,12.33
2019-04-01T17:26:14.613Z,12.78
2019-04-01T17:28:46.376Z,11.65
2019-04-01T17:31:18.130Z,12.88
2019-04-01T17:33:50.000Z,11.80
2019-04-01T17:36:21.591Z,13.65
2019-04-01T17:38:53.448Z,12.47
2019-04-01T17:41:25.095Z,12.78
2019-04-01T17:43:57.131Z,11.60
2019-04-01T17:46:29.918Z,13.60
2019-04-01T17:49:02.087Z,13.95
2019-04-01T17:51:33.630Z,14.95
2019-04-01T17:54:05.300Z,13.20
2019-04-01T17:56:37.101Z,13.55
2019-04-01T17:59:08.638Z,13.20
2019-04-01T18:01:40.285Z,12.15
2019-04-01T18:04:12.040Z,12.40
2019-04-01T18:06:43.492Z,12.35
2019-04-01T18:09:15.075Z,12.98
2019-04-01T18:11:46.804Z,12.10
2019-04-01T18:14:19.203Z,12.25
2019-04-01T18:16:50.891Z,11.33
2019-04-01T18:19:22.494Z,11.80
2019-04-01T18:21:54.266Z,11.68
2019-04-01T18:24:26.030Z,10.98
2019-04-01T18:26:57.485Z,12.63
2019-04-01T18:29:29.237Z,11.78
2019-04-01T18:32:02.277Z,12.55
2019-04-01T18:34:33.778Z,10.88
2019-04-01T18:37:05.296Z,12.33
2019-04-01T18:39:47.405Z,10.38
2019-04-01T18:42:10.085Z,9.65
2019-04-01T18:44:41.732Z,9.90
2019-04-01T18:47:13.503Z,9.33
2019-04-01T18:49:45.967Z,10.48
2019-04-01T18:52:17.627Z,10.43
2019-04-01T18:54:49.196Z,11.70
2019-04-01T18:57:20.958Z,11.18
2019-04-01T18:59:52.706Z,9.75
2019-04-01T19:02:24.371Z,10.65
2019-04-01T19:04:56.225Z,11.55
2019-04-01T19:07:27.784Z,11.33
2019-04-01T19:10:05.900Z,10.85
2019-04-01T19:12:32.555Z,11.73
2019-04-01T19:15:10.129Z,10.58
2019-04-01T19:17:42.301Z,10.00
2019-04-01T19:20:14.433Z,9.68
2019-04-01T19:22:46.123Z,9.35
